createdAt,value
2018-01-31T01:52:21.006Z,1009.44
2018-01-31T01:52:59.003Z,1009.43
2018-01-31T01:53:58.982Z,1009.44
2018-01-31T01:54:58.964Z,1009.42
2018-01-31T01:55:58.933Z,1009.40
2018-01-31T01:56:58.917Z,1009.35
2018-01-31T01:57:58.890Z,1009.34
2018-01-31T01:58:58.871Z,1009.28
2018-01-31T01:59:58.843Z,1009.29
2018-01-31T02:00:58.820Z,1009.27
2018-01-31T02:01:58.801Z,1009.24
2018-01-31T02:02:58.775Z,1009.20
2018-01-31T02:03:58.761Z,1009.13
2018-01-31T02:04:58.732Z,1009.12
2018-01-31T02:05:58.718Z,1009.10
2018-01-31T02:06:58.697Z,1009.08
2018-01-31T02:07:58.666Z,1008.97
2018-01-31T02:08:58.651Z,1008.92
2018-01-31T02:09:58.620Z,1008.89
2018-01-31T02:10:58.597Z,1008.88
2018-01-31T02:11:58.581Z,1008.80
2018-01-31T02:12:58.560Z,1008.79
2018-01-31T02:13:58.530Z,1008.76
2018-01-31T02:14:58.509Z,1008.70
2018-01-31T02:15:58.489Z,1008.68
2018-01-31T02:16:58.469Z,1008.67
2018-01-31T02:17:58.445Z,1008.63
2018-01-31T02:18:58.419Z,1008.51
2018-01-31T02:19:58.401Z,1008.52
2018-01-31T02:20:58.379Z,1008.54
2018-01-31T02:21:58.352Z,1008.48
2018-01-31T02:22:58.328Z,1008.45
2018-01-31T02:23:58.308Z,1008.43
2018-01-31T02:24:58.285Z,1008.40
2018-01-31T02:25:58.267Z,1008.39
2018-01-31T02:26:58.237Z,1008.29
2018-01-31T02:27:58.225Z,1008.22
2018-01-31T02:28:58.193Z,1008.23
2018-01-31T02:29:58.169Z,1008.21
2018-01-31T02:30:58.157Z,1008.16
2018-01-31T02:31:58.126Z,1008.18
2018-01-31T02:32:58.101Z,1008.18
2018-01-31T02:33:58.087Z,1008.12
2018-01-31T02:34:58.060Z,1008.13
2018-01-31T02:35:58.038Z,1008.09
2018-01-31T02:36:58.012Z,1008.08
2018-01-31T02:37:57.989Z,1008.01
2018-01-31T02:38:57.973Z,1007.96
2018-01-31T02:39:57.945Z,1007.92
2018-01-31T02:40:57.921Z,1007.90
2018-01-31T02:41:57.964Z,1007.88
2018-01-31T02:42:57.879Z,1007.83
2018-01-31T02:43:57.855Z,1007.82
2018-01-31T02:44:57.937Z,1007.80
2018-01-31T02:45:57.828Z,1007.76
2018-01-31T02:46:57.788Z,1007.72
2018-01-31T02:47:57.767Z,1007.68
2018-01-31T02:48:57.745Z,1007.58
2018-01-31T02:49:57.726Z,1007.59
2018-01-31T02:50:57.730Z,1007.58
2018-01-31T02:51:57.677Z,1007.53
2018-01-31T02:52:57.653Z,1007.55
2018-01-31T02:53:57.632Z,1007.50
2018-01-31T02:54:57.608Z,1007.49
2018-01-31T02:55:57.586Z,1007.41
2018-01-31T02:56:57.568Z,1007.39
2018-01-31T02:57:57.545Z,1007.35
2018-01-31T02:58:57.526Z,1007.33
2018-01-31T02:59:57.499Z,1007.33
2018-01-31T03:00:57.476Z,1007.24
2018-01-31T03:01:57.454Z,1007.25
2018-01-31T03:02:57.443Z,1007.20
2018-01-31T03:03:57.573Z,1007.19
2018-01-31T03:04:57.385Z,1007.14
2018-01-31T03:05:57.364Z,1007.12
2018-01-31T03:06:57.434Z,1007.11
2018-01-31T03:07:57.322Z,1007.02
2018-01-31T03:08:57.303Z,1007.00
2018-01-31T03:09:57.274Z,1006.91
2018-01-31T03:10:57.252Z,1006.85
2018-01-31T03:11:57.239Z,1006.81
2018-01-31T03:12:57.214Z,1006.81
2018-01-31T03:13:57.245Z,1006.78
2018-01-31T03:14:57.172Z,1006.73
2018-01-31T03:15:57.142Z,1006.72
2018-01-31T03:16:57.121Z,1006.67
2018-01-31T03:17:57.165Z,1006.63
2018-01-31T03:18:57.120Z,1006.63
2018-01-31T03:19:57.054Z,1006.60
2018-01-31T03:20:57.034Z,1006.54
2018-01-31T03:21:57.013Z,1006.49
2018-01-31T03:22:56.986Z,1006.52
2018-01-31T03:23:56.966Z,1006.46
2018-01-31T03:24:56.942Z,1006.43
2018-01-31T03:25:56.919Z,1006.44
2018-01-31T03:26:56.900Z,1006.43
2018-01-31T03:27:56.875Z,1006.39
2018-01-31T03:28:56.851Z,1006.36
2018-01-31T03:29:56.828Z,1006.31
2018-01-31T03:30:56.810Z,1006.29
2018-01-31T03:31:56.788Z,1006.28
2018-01-31T03:32:56.761Z,1006.25
2018-01-31T03:33:56.747Z,1006.28
2018-01-31T03:34:56.723Z,1006.18
2018-01-31T03:35:56.698Z,1006.16
2018-01-31T03:36:56.677Z,1006.11
2018-01-31T03:37:56.696Z,1006.11
2018-01-31T03:38:56.631Z,1006.13
2018-01-31T03:39:56.758Z,1006.06
2018-01-31T03:40:56.588Z,1006.02
2018-01-31T03:41:56.567Z,1006.02
2018-01-31T03:42:56.593Z,1005.98
2018-01-31T03:43:56.520Z,1005.95
2018-01-31T03:44:56.498Z,1005.96
2018-01-31T03:45:56.477Z,1005.91
2018-01-31T03:46:56.451Z,1005.94
2018-01-31T03:47:56.429Z,1005.88
2018-01-31T03:48:56.406Z,1005.85
2018-01-31T03:49:56.391Z,1005.85
2018-01-31T03:50:56.366Z,1005.77
2018-01-31T03:51:56.341Z,1005.74
2018-01-31T03:52:56.320Z,1005.70
2018-01-31T03:53:56.295Z,1005.67
2018-01-31T03:54:56.276Z,1005.64
2018-01-31T03:55:56.256Z,1005.61
2018-01-31T03:56:56.232Z,1005.61
2018-01-31T03:57:56.209Z,1005.59
2018-01-31T03:58:56.191Z,1005.60
2018-01-31T03:59:56.166Z,1005.54
2018-01-31T04:00:56.146Z,1005.52
2018-01-31T04:01:56.120Z,1005.47
2018-01-31T04:02:56.098Z,1005.46
2018-01-31T04:03:56.075Z,1005.47
2018-01-31T04:04:56.055Z,1005.43
2018-01-31T04:05:56.031Z,1005.45
2018-01-31T04:06:56.009Z,1005.36
2018-01-31T04:07:55.987Z,1005.36
2018-01-31T04:08:55.963Z,1005.36
2018-01-31T04:09:56.035Z,1005.36
2018-01-31T04:10:55.925Z,1005.35
2018-01-31T04:11:55.900Z,1005.37
2018-01-31T04:12:55.894Z,1005.31
2018-01-31T04:13:55.853Z,1005.28
2018-01-31T04:14:55.834Z,1005.28
2018-01-31T04:15:55.860Z,1005.27
2018-01-31T04:16:55.787Z,1005.27
2018-01-31T04:17:55.770Z,1005.23
2018-01-31T04:18:55.743Z,1005.23
2018-01-31T04:19:55.752Z,1005.14
2018-01-31T04:20:55.702Z,1005.10
2018-01-31T04:21:55.678Z,1005.02
2018-01-31T04:22:55.656Z,1005.02
2018-01-31T04:23:55.635Z,1005.04
2018-01-31T04:24:55.612Z,1005.01
2018-01-31T04:25:55.592Z,1005.03
2018-01-31T04:26:55.566Z,1005.01
2018-01-31T04:27:55.548Z,1004.93
2018-01-31T04:28:55.532Z,1004.91
2018-01-31T04:29:55.501Z,1004.90
2018-01-31T04:30:55.483Z,1004.87
2018-01-31T04:31:55.456Z,1004.85
2018-01-31T04:32:55.438Z,1004.83
2018-01-31T04:33:55.422Z,1004.79
2018-01-31T04:34:55.407Z,1004.75
2018-01-31T04:35:55.371Z,1004.70
2018-01-31T04:36:55.345Z,1004.69
2018-01-31T04:37:55.373Z,1004.70
2018-01-31T04:38:55.302Z,1004.64
2018-01-31T04:39:55.283Z,1004.65
2018-01-31T04:40:55.262Z,1004.60
2018-01-31T04:41:55.239Z,1004.60
2018-01-31T04:42:55.220Z,1004.59
2018-01-31T04:43:55.203Z,1004.62
2018-01-31T04:44:55.172Z,1004.50
2018-01-31T04:45:55.153Z,1004.47
2018-01-31T04:46:55.128Z,1004.51
2018-01-31T04:47:55.111Z,1004.47
2018-01-31T04:48:55.089Z,1004.50
2018-01-31T04:49:55.064Z,1004.46
2018-01-31T04:50:55.044Z,1004.49
2018-01-31T04:51:55.026Z,1004.43
2018-01-31T04:52:55.004Z,1004.41
2018-01-31T04:53:54.978Z,1004.41
2018-01-31T04:54:54.959Z,1004.37
2018-01-31T04:55:54.933Z,1004.39
2018-01-31T04:56:54.911Z,1004.37
2018-01-31T04:57:54.891Z,1004.34
2018-01-31T04:58:54.869Z,1004.30
2018-01-31T04:59:54.847Z,1004.27
2018-01-31T05:00:54.828Z,1004.24
2018-01-31T05:01:54.808Z,1004.22
2018-01-31T05:02:54.780Z,1004.24
2018-01-31T05:03:54.761Z,1004.24
2018-01-31T05:04:54.745Z,1004.19
2018-01-31T05:05:54.717Z,1004.20
2018-01-31T05:06:54.704Z,1004.14
2018-01-31T05:07:54.690Z,1004.17
2018-01-31T05:08:54.650Z,1004.16
2018-01-31T05:09:54.629Z,1004.07
2018-01-31T05:10:54.618Z,1004.05
2018-01-31T05:11:54.586Z,1004.04
2018-01-31T05:12:54.567Z,1004.07
2018-01-31T05:13:54.547Z,1004.10
2018-01-31T05:14:54.525Z,1003.98
2018-01-31T05:15:54.501Z,1004.01
2018-01-31T05:16:54.477Z,1004.01
2018-01-31T05:17:54.459Z,1004.01
2018-01-31T05:18:54.434Z,1003.98
2018-01-31T05:19:54.415Z,1003.93
2018-01-31T05:20:54.394Z,1003.96
2018-01-31T05:21:54.375Z,1003.96
2018-01-31T05:22:54.346Z,1003.93
2018-01-31T05:23:54.326Z,1003.89
2018-01-31T05:24:54.307Z,1003.87
2018-01-31T05:25:54.285Z,1003.77
2018-01-31T05:26:54.264Z,1003.79
2018-01-31T05:27:54.243Z,1003.71
2018-01-31T05:28:54.222Z,1003.76
2018-01-31T05:29:54.297Z,1003.75
2018-01-31T05:30:54.178Z,1003.66
2018-01-31T05:31:54.158Z,1003.67
2018-01-31T05:32:54.139Z,1003.64
2018-01-31T05:33:54.112Z,1003.66
2018-01-31T05:34:54.094Z,1003.69
2018-01-31T05:35:54.074Z,1003.61
2018-01-31T05:36:54.062Z,1003.58
2018-01-31T05:37:54.068Z,1003.56
2018-01-31T05:38:54.008Z,1003.52
2018-01-31T05:39:53.984Z,1003.51
2018-01-31T05:40:54.065Z,1003.54
2018-01-31T05:41:53.944Z,1003.56
2018-01-31T05:42:53.921Z,1003.53
2018-01-31T05:43:53.902Z,1003.47
2018-01-31T05:44:53.891Z,1003.49
2018-01-31T05:45:53.856Z,1003.43
2018-01-31T05:46:53.850Z,1003.46
2018-01-31T05:47:53.823Z,1003.40
2018-01-31T05:48:53.794Z,1003.42
2018-01-31T05:49:53.773Z,1003.38
2018-01-31T05:50:53.754Z,1003.42
2018-01-31T05:51:53.731Z,1003.37
2018-01-31T05:52:53.712Z,1003.30
2018-01-31T05:53:53.690Z,1003.38
2018-01-31T05:54:53.671Z,1003.31
2018-01-31T05:55:53.652Z,1003.33
2018-01-31T05:56:53.624Z,1003.37
2018-01-31T05:57:53.606Z,1003.34
2018-01-31T05:58:53.592Z,1003.32
2018-01-31T05:59:53.574Z,1003.28
2018-01-31T06:00:53.552Z,1003.27
2018-01-31T06:01:53.521Z,1003.29
2018-01-31T06:02:53.523Z,1003.24
2018-01-31T06:03:53.479Z,1003.25
2018-01-31T06:04:53.460Z,1003.22
2018-01-31T06:05:53.439Z,1003.19
2018-01-31T06:06:53.423Z,1003.20
2018-01-31T06:07:53.393Z,1003.16
2018-01-31T06:08:53.373Z,1003.14
2018-01-31T06:09:53.352Z,1003.04
2018-01-31T06:10:53.332Z,1003.11
2018-01-31T06:11:53.311Z,1003.07
2018-01-31T06:12:53.296Z,1003.10
2018-01-31T06:13:53.268Z,1003.00
2018-01-31T06:14:53.252Z,1003.05
2018-01-31T06:15:53.228Z,1003.03
2018-01-31T06:16:53.209Z,1003.05
2018-01-31T06:17:53.192Z,1002.98
2018-01-31T06:18:53.168Z,1002.94
2018-01-31T06:19:53.155Z,1002.89
2018-01-31T06:20:53.124Z,1002.97
2018-01-31T06:21:53.226Z,1002.96
2018-01-31T06:22:53.080Z,1002.89
2018-01-31T06:23:53.062Z,1002.91
2018-01-31T06:24:53.038Z,1002.88
2018-01-31T06:25:53.020Z,1002.84
2018-01-31T06:26:52.997Z,1002.88
2018-01-31T06:27:52.984Z,1002.82
2018-01-31T06:28:52.957Z,1002.79
2018-01-31T06:29:52.947Z,1002.69
2018-01-31T06:30:52.914Z,1002.72
2018-01-31T06:31:52.897Z,1002.70
2018-01-31T06:32:52.878Z,1002.64
2018-01-31T06:33:52.856Z,1002.62
2018-01-31T06:34:52.836Z,1002.70
2018-01-31T06:35:52.855Z,1002.58
2018-01-31T06:36:52.790Z,1002.54
2018-01-31T06:37:52.768Z,1002.49
2018-01-31T06:38:52.748Z,1002.38
2018-01-31T06:39:52.730Z,1002.44
2018-01-31T06:40:52.707Z,1002.37
2018-01-31T06:41:52.686Z,1002.27
2018-01-31T06:42:52.705Z,1002.34
2018-01-31T06:43:52.645Z,1002.32
2018-01-31T06:44:52.624Z,1002.36
2018-01-31T06:45:52.604Z,1002.32
2018-01-31T06:46:52.582Z,1002.30
2018-01-31T06:47:52.564Z,1002.27
2018-01-31T06:48:52.541Z,1002.23
2018-01-31T06:49:52.519Z,1002.21
2018-01-31T06:50:52.503Z,1002.21
2018-01-31T06:51:52.666Z,1002.24
2018-01-31T06:52:52.458Z,1002.16
2018-01-31T06:53:52.435Z,1002.14
2018-01-31T06:54:52.516Z,1002.25
2018-01-31T06:55:52.397Z,1002.18
2018-01-31T06:56:52.375Z,1002.15
2018-01-31T06:57:52.359Z,1002.20
2018-01-31T06:58:52.333Z,1002.11
2018-01-31T06:59:52.315Z,1002.18
2018-01-31T07:00:52.293Z,1002.08
2018-01-31T07:01:52.272Z,1002.18
2018-01-31T07:02:52.252Z,1002.15
2018-01-31T07:03:52.236Z,1002.04
2018-01-31T07:04:52.219Z,1002.03
2018-01-31T07:05:52.193Z,1002.01
2018-01-31T07:06:52.170Z,1002.08
2018-01-31T07:07:52.151Z,1001.95
2018-01-31T07:08:52.130Z,1001.92
2018-01-31T07:09:52.112Z,1001.95
2018-01-31T07:10:52.089Z,1001.98
2018-01-31T07:11:52.073Z,1001.91
2018-01-31T07:12:52.049Z,1001.89
2018-01-31T07:13:52.036Z,1001.86
2018-01-31T07:14:52.020Z,1001.89
2018-01-31T07:15:51.985Z,1001.80
2018-01-31T07:16:51.966Z,1001.85
2018-01-31T07:17:51.945Z,1001.84
2018-01-31T07:18:51.925Z,1001.87
2018-01-31T07:19:51.904Z,1001.82
2018-01-31T07:20:51.891Z,1001.80
2018-01-31T07:21:51.863Z,1001.80
2018-01-31T07:22:51.842Z,1001.89
2018-01-31T07:23:51.831Z,1001.70
2018-01-31T07:24:51.884Z,1001.61
2018-01-31T07:25:51.789Z,1001.63
2018-01-31T07:26:51.766Z,1001.64
2018-01-31T07:27:51.747Z,1001.63
2018-01-31T07:28:51.723Z,1001.66
2018-01-31T07:29:51.705Z,1001.61
2018-01-31T07:30:51.680Z,1001.57
2018-01-31T07:31:51.664Z,1001.57
2018-01-31T07:32:51.639Z,1001.46
2018-01-31T07:33:51.617Z,1001.55
2018-01-31T07:34:51.600Z,1001.55
2018-01-31T07:35:51.578Z,1001.57
2018-01-31T07:36:51.570Z,1001.54
2018-01-31T07:37:51.542Z,1001.47
2018-01-31T07:38:51.518Z,1001.52
2018-01-31T07:39:51.496Z,1001.40
2018-01-31T07:40:51.478Z,1001.32
2018-01-31T07:41:51.460Z,1001.47
2018-01-31T07:42:51.465Z,1001.36
2018-01-31T07:43:51.417Z,1001.35
2018-01-31T07:44:51.395Z,1001.40
2018-01-31T07:45:51.384Z,1001.35
2018-01-31T07:46:51.375Z,1001.29
2018-01-31T07:47:51.349Z,1001.26
2018-01-31T07:48:51.317Z,1001.27
2018-01-31T07:49:51.298Z,1001.28
2018-01-31T07:50:51.276Z,1001.38
2018-01-31T07:51:51.256Z,1001.23
2018-01-31T07:52:51.231Z,1001.24
2018-01-31T07:53:51.217Z,1001.25
2018-01-31T07:54:51.195Z,1001.15
2018-01-31T07:55:51.174Z,1001.16
2018-01-31T07:56:51.155Z,1001.13
2018-01-31T07:57:51.135Z,1001.07
2018-01-31T07:58:51.118Z,1001.09
2018-01-31T07:59:51.096Z,1001.12
2018-01-31T08:00:51.097Z,1001.15
2018-01-31T08:01:51.053Z,1001.09
2018-01-31T08:02:51.029Z,1000.93
2018-01-31T08:03:51.018Z,1001.09
2018-01-31T08:04:50.988Z,1001.06
2018-01-31T08:05:50.975Z,1001.04
2018-01-31T08:06:50.954Z,1000.99
2018-01-31T08:07:50.934Z,1000.96
2018-01-31T08:08:50.910Z,1000.92
2018-01-31T08:09:50.889Z,1000.83
2018-01-31T08:10:50.868Z,1000.88
2018-01-31T08:11:50.854Z,1000.86
2018-01-31T08:12:50.828Z,1000.88
2018-01-31T08:13:50.810Z,1000.94
2018-01-31T08:14:50.789Z,1000.89
2018-01-31T08:15:50.773Z,1000.88
2018-01-31T08:16:50.915Z,1000.91
2018-01-31T08:17:50.737Z,1000.88
2018-01-31T08:18:50.707Z,1000.88
2018-01-31T08:19:50.745Z,1000.91
2018-01-31T08:20:50.674Z,1000.75
2018-01-31T08:21:50.648Z,1000.81
2018-01-31T08:22:50.635Z,1000.84
2018-01-31T08:23:50.608Z,1000.74
2018-01-31T08:24:50.586Z,1000.79
2018-01-31T08:25:50.569Z,1000.62
2018-01-31T08:26:50.550Z,1000.70
2018-01-31T08:27:50.529Z,1000.63
2018-01-31T08:28:50.521Z,1000.63
2018-01-31T08:29:50.486Z,1000.64
2018-01-31T08:30:50.465Z,1000.67
2018-01-31T08:31:50.446Z,1000.64
2018-01-31T08:32:50.425Z,1000.70
2018-01-31T08:33:50.410Z,1000.65
2018-01-31T08:34:50.388Z,1000.62
2018-01-31T08:35:50.366Z,1000.77
2018-01-31T08:36:50.346Z,1000.65
2018-01-31T08:37:50.331Z,1000.67
2018-01-31T08:38:50.478Z,1000.62
2018-01-31T08:39:50.290Z,1000.67
2018-01-31T08:40:50.264Z,1000.65
2018-01-31T08:41:50.351Z,1000.66
2018-01-31T08:42:50.229Z,1000.55
2018-01-31T08:43:50.213Z,1000.52
2018-01-31T08:44:50.192Z,1000.60
2018-01-31T08:45:50.170Z,1000.46
2018-01-31T08:46:50.145Z,1000.57
2018-01-31T08:47:50.128Z,1000.44
2018-01-31T08:48:50.114Z,1000.34
2018-01-31T08:49:50.164Z,1000.51
2018-01-31T08:50:50.069Z,1000.46
2018-01-31T08:51:50.049Z,1000.44
2018-01-31T08:52:50.027Z,1000.40
2018-01-31T08:53:50.008Z,1000.46
2018-01-31T08:54:49.989Z,1000.31
2018-01-31T08:55:49.970Z,1000.28
2018-01-31T08:56:49.947Z,1000.29
2018-01-31T08:57:49.928Z,1000.32
2018-01-31T08:58:49.906Z,1000.20
2018-01-31T08:59:49.911Z,1000.26
2018-01-31T09:00:49.875Z,1000.27
2018-01-31T09:01:49.855Z,1000.22
2018-01-31T09:02:49.830Z,1000.17
2018-01-31T09:03:49.808Z,1000.16
2018-01-31T09:04:49.796Z,1000.25
2018-01-31T09:05:49.767Z,1000.26
2018-01-31T09:06:49.780Z,1000.19
2018-01-31T09:07:49.729Z,1000.29
2018-01-31T09:08:49.812Z,1000.30
2018-01-31T09:09:49.689Z,1000.21
2018-01-31T09:10:49.666Z,1000.17
2018-01-31T09:11:49.687Z,1000.14
2018-01-31T09:12:49.628Z,1000.19
2018-01-31T09:13:49.616Z,1000.12
2018-01-31T09:14:49.587Z,1000.09
2018-01-31T09:15:49.569Z,1000.18
2018-01-31T09:16:49.546Z,1000.11
2018-01-31T09:17:49.535Z,1000.11
2018-01-31T09:18:49.520Z,1000.13
2018-01-31T09:19:49.488Z,1000.08
2018-01-31T09:20:49.467Z,1000.02
2018-01-31T09:21:49.450Z,999.99
2018-01-31T09:22:49.437Z,1000.02
2018-01-31T09:23:49.409Z,999.98
2018-01-31T09:24:49.392Z,999.99
2018-01-31T09:25:49.370Z,999.96
2018-01-31T09:26:49.349Z,999.88
2018-01-31T09:27:49.336Z,999.97
2018-01-31T09:28:49.308Z,1000.00
2018-01-31T09:29:49.293Z,999.89
2018-01-31T09:30:49.365Z,999.85
2018-01-31T09:31:49.287Z,999.87
2018-01-31T09:32:49.232Z,999.87
2018-01-31T09:33:49.329Z,999.87
2018-01-31T09:34:49.200Z,999.89
2018-01-31T09:35:49.173Z,999.77
2018-01-31T09:36:49.159Z,999.76
2018-01-31T09:37:49.136Z,999.72
2018-01-31T09:38:49.123Z,999.71
2018-01-31T09:39:49.102Z,999.60
2018-01-31T09:40:49.078Z,999.63
2018-01-31T09:41:49.066Z,999.63
2018-01-31T09:42:49.034Z,999.58
2018-01-31T09:43:49.012Z,999.58
2018-01-31T09:44:49.018Z,999.61
2018-01-31T09:45:48.974Z,999.59
2018-01-31T09:46:48.956Z,999.49
2018-01-31T09:47:48.938Z,999.53
2018-01-31T09:48:48.916Z,999.42
2018-01-31T09:49:48.906Z,999.50
2018-01-31T09:50:48.876Z,999.51
2018-01-31T09:51:48.864Z,999.41
2018-01-31T09:52:48.836Z,999.40
2018-01-31T09:53:48.821Z,999.41
2018-01-31T09:54:48.801Z,999.38
2018-01-31T09:55:48.778Z,999.38
2018-01-31T09:56:48.759Z,999.31
2018-01-31T09:57:48.740Z,999.37
2018-01-31T09:58:48.720Z,999.33
2018-01-31T09:59:48.708Z,999.33
2018-01-31T10:00:48.788Z,999.28
2018-01-31T10:01:48.659Z,999.26
2018-01-31T10:02:48.645Z,999.29
2018-01-31T10:03:48.658Z,999.25
2018-01-31T10:04:48.602Z,999.26
2018-01-31T10:05:48.581Z,999.19
2018-01-31T10:06:48.561Z,999.22
2018-01-31T10:07:48.560Z,999.23
2018-01-31T10:08:48.521Z,999.15
2018-01-31T10:09:48.509Z,999.13
2018-01-31T10:10:48.483Z,999.15
2018-01-31T10:11:48.470Z,999.14
2018-01-31T10:12:48.445Z,999.14
2018-01-31T10:13:48.423Z,999.10
2018-01-31T10:14:48.410Z,999.16
2018-01-31T10:15:48.388Z,999.01
2018-01-31T10:16:48.369Z,998.97
2018-01-31T10:17:48.346Z,998.96
2018-01-31T10:18:48.327Z,998.95
2018-01-31T10:19:48.307Z,998.91
2018-01-31T10:20:48.286Z,998.87
2018-01-31T10:21:48.328Z,998.85
2018-01-31T10:22:48.247Z,998.80
2018-01-31T10:23:48.230Z,998.84
2018-01-31T10:24:48.212Z,998.82
2018-01-31T10:25:48.185Z,998.73
2018-01-31T10:26:48.166Z,998.77
2018-01-31T10:27:48.146Z,998.77
2018-01-31T10:28:48.134Z,998.68
2018-01-31T10:29:48.106Z,998.76
2018-01-31T10:30:48.118Z,998.73
2018-01-31T10:31:48.068Z,998.72
2018-01-31T10:32:48.046Z,998.67
2018-01-31T10:33:48.040Z,998.66
2018-01-31T10:34:48.008Z,998.69
2018-01-31T10:35:47.988Z,998.65
2018-01-31T10:36:47.967Z,998.63
2018-01-31T10:37:47.955Z,998.66
2018-01-31T10:38:47.937Z,998.60
2018-01-31T10:39:47.907Z,998.58
2018-01-31T10:40:47.898Z,998.65
2018-01-31T10:41:47.869Z,998.56
2018-01-31T10:42:47.850Z,998.60
2018-01-31T10:43:47.839Z,998.48
2018-01-31T10:44:47.811Z,998.57
2018-01-31T10:45:47.799Z,998.48
2018-01-31T10:46:47.773Z,998.45
2018-01-31T10:47:47.782Z,998.45
2018-01-31T10:48:47.735Z,998.53
2018-01-31T10:49:47.717Z,998.37
2018-01-31T10:50:47.695Z,998.27
2018-01-31T10:51:47.674Z,998.27
2018-01-31T10:52:47.690Z,998.28
2018-01-31T10:57:47.554Z,998.07
2018-01-31T10:58:47.532Z,998.14
2018-01-31T10:59:47.541Z,998.15
2018-01-31T11:00:47.491Z,998.19
2018-01-31T11:01:47.476Z,998.09
2018-01-31T11:02:47.462Z,998.04
2018-01-31T11:03:47.435Z,998.03
2018-01-31T11:04:47.414Z,998.08
2018-01-31T11:05:47.401Z,998.06
2018-01-31T11:06:47.377Z,998.03
2018-01-31T11:07:47.356Z,997.95
2018-01-31T11:08:47.337Z,997.96
2018-01-31T11:09:47.316Z,997.92
2018-01-31T11:10:47.297Z,997.80
2018-01-31T11:11:47.409Z,997.86
2018-01-31T11:12:47.258Z,997.83
2018-01-31T11:13:47.243Z,997.77
2018-01-31T11:14:47.220Z,997.71
2018-01-31T11:15:47.201Z,997.68
2018-01-31T11:16:47.180Z,997.71
2018-01-31T11:17:47.164Z,997.67
2018-01-31T11:18:47.145Z,997.66
2018-01-31T11:19:47.128Z,997.65
2018-01-31T11:20:47.100Z,997.63
2018-01-31T11:21:47.080Z,997.63
2018-01-31T11:22:47.094Z,997.55
2018-01-31T11:23:47.041Z,997.50
2018-01-31T11:24:47.027Z,997.57
2018-01-31T11:25:47.053Z,997.57
2018-01-31T11:26:46.989Z,997.41
2018-01-31T11:27:46.966Z,997.45
2018-01-31T11:28:46.942Z,997.39
2018-01-31T11:29:46.921Z,997.37
2018-01-31T11:30:46.919Z,997.35
2018-01-31T11:31:46.883Z,997.34
2018-01-31T11:32:46.861Z,997.34
2018-01-31T11:33:46.843Z,997.32
2018-01-31T11:34:46.822Z,997.25
2018-01-31T11:35:46.806Z,997.25
2018-01-31T11:36:46.782Z,997.32
2018-01-31T11:37:46.798Z,997.18
2018-01-31T11:38:46.747Z,997.19
2018-01-31T11:39:46.725Z,997.18
2018-01-31T11:40:46.713Z,997.05
2018-01-31T11:41:46.706Z,997.17
2018-01-31T11:42:46.668Z,997.03
2018-01-31T11:43:46.645Z,997.24
2018-01-31T11:44:46.729Z,997.11
2018-01-31T11:45:46.605Z,997.08
2018-01-31T11:46:46.589Z,997.09
2018-01-31T11:47:46.580Z,997.01
2018-01-31T11:48:46.547Z,997.08
2018-01-31T11:49:46.525Z,996.85
2018-01-31T11:50:46.517Z,996.96
2018-01-31T11:51:46.495Z,996.93
2018-01-31T11:52:46.479Z,996.81
2018-01-31T11:53:46.446Z,996.74
2018-01-31T11:54:46.425Z,996.83
2018-01-31T11:55:46.420Z,996.82
2018-01-31T11:56:46.385Z,996.95
2018-01-31T11:57:46.402Z,996.82
2018-01-31T11:58:46.349Z,996.77
2018-01-31T11:59:46.329Z,996.77
2018-01-31T12:00:46.311Z,996.72
2018-01-31T12:01:46.286Z,996.81
2018-01-31T12:02:46.267Z,996.78
2018-01-31T12:03:46.248Z,996.65
2018-01-31T12:04:46.231Z,996.77
2018-01-31T12:05:46.217Z,996.64
2018-01-31T12:06:46.189Z,996.78
2018-01-31T12:07:46.168Z,996.75
2018-01-31T12:08:46.148Z,996.65
2018-01-31T12:09:46.129Z,996.67
2018-01-31T12:10:46.108Z,996.63
2018-01-31T12:11:46.110Z,996.64
2018-01-31T12:12:46.068Z,996.57
2018-01-31T12:13:46.051Z,996.73
2018-01-31T12:14:46.123Z,996.61
2018-01-31T12:15:46.013Z,996.73
2018-01-31T12:16:45.993Z,996.66
2018-01-31T12:17:46.021Z,996.74
2018-01-31T12:18:45.958Z,996.72
2018-01-31T12:19:45.979Z,996.74
2018-01-31T12:20:45.909Z,996.84
2018-01-31T12:21:45.890Z,996.87
2018-01-31T12:22:45.871Z,996.97
2018-01-31T12:23:45.860Z,997.00
2018-01-31T12:24:45.832Z,996.98
2018-01-31T12:25:45.812Z,996.92
2018-01-31T12:26:45.799Z,996.97
2018-01-31T12:27:45.774Z,996.95
2018-01-31T12:28:45.750Z,996.90
2018-01-31T12:29:45.731Z,996.99
2018-01-31T12:30:45.709Z,996.92
2018-01-31T12:31:45.698Z,996.89
2018-01-31T12:32:45.664Z,996.87
2018-01-31T12:33:45.714Z,996.79
2018-01-31T12:34:45.637Z,996.90
2018-01-31T12:35:45.604Z,996.75
2018-01-31T12:36:45.592Z,996.81
2018-01-31T12:37:45.571Z,996.85
2018-01-31T12:38:45.545Z,996.75
2018-01-31T12:39:45.526Z,996.72
2018-01-31T12:40:45.499Z,996.75
2018-01-31T12:41:45.482Z,996.81
2018-01-31T12:42:45.459Z,996.79
2018-01-31T12:43:45.447Z,996.78
2018-01-31T12:44:45.421Z,996.76
2018-01-31T12:45:45.404Z,996.82
2018-01-31T12:46:45.389Z,996.72
2018-01-31T12:47:45.354Z,996.63
2018-01-31T12:48:45.335Z,996.60
2018-01-31T12:49:45.314Z,996.65
2018-01-31T12:50:45.295Z,996.62
2018-01-31T12:51:45.275Z,996.58
2018-01-31T12:52:45.249Z,996.54
2018-01-31T12:53:45.229Z,996.60
2018-01-31T12:54:45.210Z,996.50
2018-01-31T12:55:45.188Z,996.51
2018-01-31T12:56:45.169Z,996.54
2018-01-31T12:57:45.144Z,996.66
2018-01-31T12:58:45.122Z,996.58
2018-01-31T12:59:45.102Z,996.59
2018-01-31T13:00:45.080Z,996.59
2018-01-31T13:01:45.073Z,996.52
2018-01-31T13:02:45.053Z,996.58
2018-01-31T13:03:45.045Z,996.60
2018-01-31T13:04:45.003Z,996.58
2018-01-31T13:05:44.978Z,996.52
2018-01-31T13:06:44.988Z,996.46
2018-01-31T13:07:44.940Z,996.58
2018-01-31T13:08:44.920Z,996.47
2018-01-31T13:09:44.948Z,996.47
2018-01-31T13:10:44.879Z,996.51
2018-01-31T13:11:44.850Z,996.41
2018-01-31T13:12:44.842Z,996.41
2018-01-31T13:13:44.808Z,996.37
2018-01-31T13:14:44.787Z,996.38
2018-01-31T13:15:44.768Z,996.31
2018-01-31T13:16:44.751Z,996.28
2018-01-31T13:17:44.731Z,996.29
2018-01-31T13:18:44.711Z,996.26
2018-01-31T13:19:44.684Z,996.19
2018-01-31T13:20:44.667Z,996.19
2018-01-31T13:21:44.649Z,996.18
2018-01-31T13:22:44.635Z,996.15
2018-01-31T13:23:44.596Z,996.18
2018-01-31T13:24:44.576Z,996.11
2018-01-31T13:25:44.557Z,996.03
2018-01-31T13:26:44.542Z,995.96
2018-01-31T13:27:44.516Z,996.03
2018-01-31T13:28:44.508Z,995.99
2018-01-31T13:29:44.473Z,995.95
2018-01-31T13:30:44.456Z,995.88
2018-01-31T13:31:44.433Z,995.85
2018-01-31T13:32:44.412Z,995.82
2018-01-31T13:33:44.398Z,995.80
2018-01-31T13:34:44.367Z,995.80
2018-01-31T13:35:44.351Z,995.77
2018-01-31T13:36:44.337Z,995.75
2018-01-31T13:37:44.308Z,995.68
2018-01-31T13:38:44.298Z,995.68
2018-01-31T13:39:44.264Z,995.67
2018-01-31T13:40:44.243Z,995.61
2018-01-31T13:41:44.221Z,995.51
2018-01-31T13:42:44.226Z,995.58
2018-01-31T13:43:44.189Z,995.54
2018-01-31T13:44:44.168Z,995.55
2018-01-31T13:45:44.146Z,995.55
2018-01-31T13:46:44.134Z,995.49
2018-01-31T13:47:44.120Z,995.48
2018-01-31T13:48:44.080Z,995.48
2018-01-31T13:49:44.061Z,995.42
2018-01-31T13:50:44.046Z,995.38
2018-01-31T13:51:44.023Z,995.34
2018-01-31T13:52:44.003Z,995.30
2018-01-31T13:53:43.975Z,995.30
2018-01-31T13:54:43.958Z,995.31
2018-01-31T13:55:43.948Z,995.22
2018-01-31T13:56:43.917Z,995.28
2018-01-31T13:57:43.892Z,995.23
2018-01-31T13:58:43.882Z,995.16
2018-01-31T13:59:43.851Z,995.10
2018-01-31T14:00:43.831Z,995.15
2018-01-31T14:01:43.873Z,995.14
2018-01-31T14:02:43.792Z,995.12
2018-01-31T14:03:43.772Z,995.10
2018-01-31T14:04:43.751Z,995.11
2018-01-31T14:05:43.749Z,995.03
2018-01-31T14:06:43.712Z,995.04
2018-01-31T14:07:43.698Z,995.07
2018-01-31T14:08:43.670Z,995.05
2018-01-31T14:09:43.648Z,995.05